createdAt,value
2022-08-22T00:00:20.848Z,100.00
2022-08-22T00:01:46.337Z,100.00
2022-08-22T00:02:42.334Z,100.00
2022-08-22T00:02:46.232Z,100.00
2022-08-22T00:02:47.882Z,100.00
2022-08-22T00:02:58.170Z,100.00
2022-08-22T00:03:11.563Z,100.00
2022-08-22T00:03:12.458Z,100.00
2022-08-22T00:04:28.313Z,100.00
2022-08-22T00:05:48.643Z,100.00
2022-08-22T00:06:58.916Z,100.00
2022-08-22T00:08:20.300Z,100.00
2022-08-22T00:09:29.655Z,100.00
2022-08-22T00:10:46.910Z,100.00
2022-08-22T00:11:53.023Z,100.00
2022-08-22T00:13:07.743Z,100.00
2022-08-22T00:14:17.464Z,100.00
2022-08-22T00:15:43.653Z,100.00
2022-08-22T00:17:09.208Z,100.00
2022-08-22T00:18:12.196Z,100.00
2022-08-22T00:19:21.775Z,100.00
2022-08-22T00:20:33.728Z,100.00
2022-08-22T00:21:43.947Z,100.00
2022-08-22T00:22:52.322Z,100.00
2022-08-22T00:24:23.077Z,100.00
2022-08-22T00:25:42.499Z,100.00
2022-08-22T00:26:50.279Z,100.00
2022-08-22T00:28:03.303Z,100.00
2022-08-22T00:29:12.813Z,100.00
2022-08-22T00:30:18.592Z,100.00
2022-08-22T00:31:36.531Z,100.00
2022-08-22T00:32:45.783Z,100.00
2022-08-22T00:33:53.032Z,100.00
2022-08-22T00:35:01.209Z,100.00
2022-08-22T00:36:16.448Z,100.00
2022-08-22T00:37:24.428Z,100.00
2022-08-22T00:38:40.961Z,100.00
2022-08-22T00:39:45.886Z,100.00
2022-08-22T00:40:48.608Z,100.00
2022-08-22T00:41:54.421Z,100.00
2022-08-22T00:43:02.932Z,100.00
2022-08-22T00:44:23.978Z,100.00
2022-08-22T00:45:26.850Z,100.00
2022-08-22T00:46:29.520Z,100.00
2022-08-22T00:47:36.375Z,100.00
2022-08-22T00:48:57.675Z,100.00
2022-08-22T00:50:06.173Z,100.00
2022-08-22T00:51:11.827Z,100.00
2022-08-22T00:52:29.259Z,100.00
2022-08-22T00:53:34.899Z,100.00
2022-08-22T00:54:52.612Z,100.00
2022-08-22T00:56:03.656Z,100.00
2022-08-22T00:57:29.525Z,100.00
2022-08-22T00:58:58.666Z,100.00
2022-08-22T01:00:13.609Z,100.00
2022-08-22T01:01:19.931Z,100.00
2022-08-22T01:02:22.607Z,100.00
2022-08-22T01:03:25.329Z,100.00
2022-08-22T01:04:34.547Z,100.00
2022-08-22T01:05:55.696Z,100.00
2022-08-22T01:06:58.603Z,100.00
2022-08-22T01:08:09.529Z,100.00
2022-08-22T01:09:15.010Z,100.00
2022-08-22T01:10:38.908Z,100.00
2022-08-22T01:12:05.806Z,100.00
2022-08-22T01:13:12.915Z,100.00
2022-08-22T01:14:18.842Z,100.00
2022-08-22T01:15:28.162Z,100.00
2022-08-22T01:16:31.028Z,100.00
2022-08-22T01:17:33.670Z,100.00
2022-08-22T01:19:00.222Z,100.00
2022-08-22T01:20:21.532Z,100.00
2022-08-22T01:21:36.538Z,100.00
2022-08-22T01:23:00.048Z,100.00
2022-08-22T01:24:08.778Z,100.00
2022-08-22T01:25:26.453Z,100.00
2022-08-22T01:26:44.827Z,100.00
2022-08-22T01:27:59.791Z,100.00
2022-08-22T01:29:02.791Z,100.00
2022-08-22T01:31:38.353Z,100.00
2022-08-22T01:32:50.385Z,100.00
2022-08-22T01:34:22.471Z,100.00
2022-08-22T01:35:27.663Z,100.00
2022-08-22T01:36:43.900Z,100.00
2022-08-22T01:38:04.972Z,100.00
2022-08-22T01:39:07.706Z,100.00
2022-08-22T01:40:10.378Z,100.00
2022-08-22T01:41:13.108Z,100.00
2022-08-22T01:42:36.174Z,100.00
2022-08-22T01:43:59.172Z,100.00
2022-08-22T01:45:24.809Z,100.00
2022-08-22T01:46:33.806Z,100.00
2022-08-22T01:47:53.624Z,100.00
2022-08-22T01:49:08.712Z,100.00
2022-08-22T01:50:17.647Z,100.00
2022-08-22T01:51:43.176Z,100.00
2022-08-22T01:52:51.924Z,100.00
2022-08-22T01:54:14.920Z,100.00
2022-08-22T01:55:26.337Z,100.00
2022-08-22T01:56:33.442Z,100.00
2022-08-22T01:57:50.727Z,100.00
2022-08-22T01:59:01.641Z,100.00
2022-08-22T02:00:15.192Z,100.00
2022-08-22T02:01:22.906Z,100.00
2022-08-22T02:02:44.410Z,100.00
2022-08-22T02:04:02.068Z,100.00
2022-08-22T02:05:16.881Z,100.00
2022-08-22T02:06:25.275Z,100.00
2022-08-22T02:07:39.694Z,100.00
2022-08-22T02:09:01.102Z,100.00
2022-08-22T02:10:19.606Z,100.00
2022-08-22T02:11:48.207Z,100.00
2022-08-22T02:12:56.900Z,100.00
2022-08-22T02:14:03.615Z,100.00
2022-08-22T02:15:17.249Z,100.00
2022-08-22T02:16:33.660Z,100.00
2022-08-22T02:17:51.098Z,100.00
2022-08-22T02:19:03.670Z,100.00
2022-08-22T02:20:23.311Z,100.00
2022-08-22T02:21:44.100Z,100.00
2022-08-22T02:23:05.500Z,100.00
2022-08-22T02:24:21.880Z,100.00
2022-08-22T02:25:28.435Z,100.00
2022-08-22T02:26:37.051Z,100.00
2022-08-22T02:27:48.582Z,100.00
2022-08-22T02:28:56.759Z,100.00
2022-08-22T02:30:09.385Z,100.00
2022-08-22T02:31:16.749Z,100.00
2022-08-22T02:32:25.546Z,100.00
2022-08-22T02:33:40.659Z,100.00
2022-08-22T02:35:09.574Z,100.00
2022-08-22T02:36:15.252Z,100.00
2022-08-22T02:37:21.845Z,100.00
2022-08-22T02:38:24.494Z,100.00
2022-08-22T02:39:33.556Z,100.00
2022-08-22T02:40:59.258Z,100.00
2022-08-22T02:42:07.923Z,100.00
2022-08-22T02:43:43.652Z,100.00
2022-08-22T02:44:49.251Z,100.00
2022-08-22T02:46:03.964Z,100.00
2022-08-22T02:47:12.450Z,100.00
2022-08-22T02:48:34.095Z,100.00
2022-08-22T02:49:48.640Z,100.00
2022-08-22T02:50:59.023Z,100.00
2022-08-22T02:52:12.137Z,100.00
2022-08-22T02:53:19.407Z,100.00
2022-08-22T02:54:31.293Z,100.00
2022-08-22T02:55:38.895Z,100.00
2022-08-22T02:56:57.923Z,100.00
2022-08-22T02:58:04.540Z,100.00
2022-08-22T02:59:24.778Z,100.00
2022-08-22T03:00:32.120Z,100.00
2022-08-22T03:01:41.661Z,100.00
2022-08-22T03:02:56.455Z,100.00
2022-08-22T03:04:18.264Z,100.00
2022-08-22T03:05:29.653Z,100.00
2022-08-22T03:06:42.092Z,100.00
2022-08-22T03:07:51.086Z,100.00
2022-08-22T03:09:08.831Z,100.00
2022-08-22T03:10:14.470Z,100.00
2022-08-22T03:11:24.491Z,100.00
2022-08-22T03:12:40.013Z,100.00
2022-08-22T03:13:54.703Z,100.00
2022-08-22T03:14:57.324Z,100.00
2022-08-22T03:16:04.453Z,100.00
2022-08-22T03:17:18.650Z,100.00
2022-08-22T03:18:21.624Z,100.00
2022-08-22T03:19:30.312Z,100.00
2022-08-22T03:20:45.474Z,100.00
2022-08-22T03:21:55.679Z,100.00
2022-08-22T03:23:02.547Z,100.00
2022-08-22T03:24:14.615Z,100.00
2022-08-22T03:25:26.631Z,100.00
2022-08-22T03:26:47.934Z,100.00
2022-08-22T03:27:58.730Z,100.00
2022-08-22T03:29:04.295Z,100.00
2022-08-22T03:30:12.337Z,100.00
2022-08-22T03:31:16.830Z,100.00
2022-08-22T03:32:23.269Z,100.00
2022-08-22T03:33:30.707Z,100.00
2022-08-22T03:34:33.975Z,100.00
2022-08-22T03:35:36.649Z,100.00
2022-08-22T03:36:40.010Z,100.00
2022-08-22T03:37:44.141Z,100.00
2022-08-22T03:39:08.195Z,100.00
2022-08-22T03:40:31.825Z,100.00
2022-08-22T03:41:57.618Z,100.00
2022-08-22T03:43:13.452Z,100.00
2022-08-22T03:44:34.551Z,100.00
2022-08-22T03:45:55.768Z,100.00
2022-08-22T03:47:01.637Z,100.00
2022-08-22T03:48:22.983Z,100.00
2022-08-22T03:49:44.206Z,100.00
2022-08-22T03:51:08.093Z,100.00
2022-08-22T03:52:33.745Z,100.00
2022-08-22T03:53:36.431Z,100.00
2022-08-22T03:54:51.651Z,100.00
2022-08-22T03:56:12.891Z,100.00
2022-08-22T03:57:24.886Z,100.00
2022-08-22T03:58:39.890Z,100.00
2022-08-22T03:59:55.417Z,100.00
2022-08-22T04:01:01.493Z,100.00
2022-08-22T04:02:29.458Z,100.00
2022-08-22T04:04:16.632Z,100.00
2022-08-22T04:05:28.661Z,100.00
2022-08-22T04:06:31.343Z,100.00
2022-08-22T04:07:35.244Z,100.00
2022-08-22T04:08:49.721Z,100.00
2022-08-22T04:10:27.923Z,100.00
2022-08-22T04:11:42.799Z,100.00
2022-08-22T04:12:45.620Z,100.00
2022-08-22T04:14:03.870Z,100.00
2022-08-22T04:15:26.934Z,100.00
2022-08-22T04:16:56.322Z,100.00
2022-08-22T04:18:07.928Z,100.00
2022-08-22T04:19:29.792Z,100.00
2022-08-22T04:20:44.497Z,100.00
2022-08-22T04:22:02.534Z,100.00
2022-08-22T04:23:25.061Z,100.00
2022-08-22T04:24:43.036Z,100.00
2022-08-22T04:26:11.980Z,100.00
2022-08-22T04:27:22.473Z,100.00
2022-08-22T04:28:29.807Z,100.00
2022-08-22T04:29:42.081Z,100.00
2022-08-22T04:30:54.190Z,100.00
2022-08-22T04:32:09.790Z,100.00
2022-08-22T04:33:19.689Z,100.00
2022-08-22T04:34:28.663Z,100.00
2022-08-22T04:35:42.869Z,100.00
2022-08-22T04:36:50.122Z,100.00
2022-08-22T04:37:52.881Z,100.00
2022-08-22T04:39:00.428Z,100.00
2022-08-22T04:40:08.183Z,100.00
2022-08-22T04:41:16.903Z,100.00
2022-08-22T04:42:32.585Z,100.00
2022-08-22T04:43:48.198Z,100.00
2022-08-22T04:45:05.877Z,100.00
2022-08-22T04:46:16.110Z,100.00
2022-08-22T04:47:32.113Z,100.00
2022-08-22T04:48:37.685Z,100.00
2022-08-22T04:49:49.206Z,100.00
2022-08-22T04:51:12.171Z,100.00
2022-08-22T04:52:33.363Z,100.00
2022-08-22T04:53:45.002Z,100.00
2022-08-22T04:54:53.896Z,100.00
2022-08-22T04:56:07.053Z,100.00
2022-08-22T04:57:16.122Z,100.00
2022-08-22T04:58:21.656Z,100.00
2022-08-22T04:59:25.044Z,100.00
2022-08-22T05:00:49.541Z,100.00
2022-08-22T05:01:58.289Z,100.00
2022-08-22T05:03:02.448Z,100.00
2022-08-22T05:04:08.546Z,100.00
2022-08-22T05:05:15.026Z,100.00
2022-08-22T05:06:20.016Z,100.00
2022-08-22T05:07:27.305Z,100.00
2022-08-22T05:08:37.301Z,100.00
2022-08-22T05:09:45.483Z,100.00
2022-08-22T05:10:49.694Z,100.00
2022-08-22T05:11:55.523Z,100.00
2022-08-22T05:13:01.866Z,100.00
2022-08-22T05:14:08.464Z,100.00
2022-08-22T05:15:14.097Z,100.00
2022-08-22T05:16:23.392Z,100.00
2022-08-22T05:17:28.062Z,100.00
2022-08-22T05:18:33.709Z,100.00
2022-08-22T05:19:40.708Z,100.00
2022-08-22T05:20:46.268Z,100.00
2022-08-22T05:21:52.343Z,100.00
2022-08-22T05:22:58.365Z,100.00
2022-08-22T05:24:01.623Z,100.00
2022-08-22T05:25:11.101Z,100.00
2022-08-22T05:26:14.768Z,100.00
2022-08-22T05:27:20.327Z,100.00
2022-08-22T05:28:31.319Z,100.00
2022-08-22T05:29:34.180Z,100.00
2022-08-22T05:30:37.897Z,100.00
2022-08-22T05:31:43.234Z,100.00
2022-08-22T05:32:52.041Z,100.00
2022-08-22T05:33:58.670Z,100.00
2022-08-22T05:35:02.277Z,100.00
2022-08-22T05:36:09.051Z,100.00
2022-08-22T05:37:37.960Z,100.00
2022-08-22T05:38:44.179Z,100.00
2022-08-22T05:39:51.150Z,100.00
2022-08-22T05:40:57.638Z,100.00
2022-08-22T05:42:02.167Z,100.00
2022-08-22T05:43:06.529Z,100.00
2022-08-22T05:44:17.934Z,100.00
2022-08-22T05:45:21.255Z,100.00
2022-08-22T05:46:42.741Z,100.00
2022-08-22T05:47:47.952Z,100.00
2022-08-22T05:48:58.829Z,100.00
2022-08-22T05:50:05.166Z,100.00
2022-08-22T05:51:21.504Z,100.00
2022-08-22T05:52:36.356Z,100.00
2022-08-22T05:53:42.487Z,100.00
2022-08-22T05:54:54.364Z,100.00
2022-08-22T05:55:57.080Z,100.00
2022-08-22T05:57:09.358Z,100.00
2022-08-22T05:58:42.649Z,100.00
2022-08-22T05:59:47.612Z,100.00
2022-08-22T06:00:54.056Z,100.00
2022-08-22T06:01:56.808Z,100.00
2022-08-22T06:03:13.507Z,100.00
2022-08-22T06:04:16.178Z,100.00
2022-08-22T06:05:23.668Z,100.00
2022-08-22T06:06:27.710Z,100.00
2022-08-22T06:07:34.868Z,100.00
2022-08-22T06:08:44.141Z,100.00
2022-08-22T06:09:46.781Z,100.00
2022-08-22T06:10:57.717Z,100.00
2022-08-22T06:12:18.191Z,100.00
2022-08-22T06:13:42.363Z,100.00
2022-08-22T06:14:52.734Z,100.00
2022-08-22T06:16:14.127Z,100.00
2022-08-22T06:17:20.488Z,100.00
2022-08-22T06:18:25.148Z,100.00
2022-08-22T06:19:28.233Z,100.00
2022-08-22T06:20:44.120Z,100.00
2022-08-22T06:21:49.837Z,100.00
2022-08-22T06:22:54.363Z,100.00
2022-08-22T06:23:58.595Z,100.00
2022-08-22T06:25:12.802Z,100.00
2022-08-22T06:26:20.535Z,100.00
2022-08-22T06:27:27.098Z,100.00
2022-08-22T06:28:37.097Z,100.00
2022-08-22T06:29:44.404Z,100.00
2022-08-22T06:30:48.669Z,100.00
2022-08-22T06:31:51.599Z,100.00
2022-08-22T06:32:59.747Z,100.00
2022-08-22T06:34:12.158Z,100.00
2022-08-22T06:35:23.977Z,100.00
2022-08-22T06:36:33.977Z,100.00
2022-08-22T06:37:39.697Z,100.00
2022-08-22T06:38:58.873Z,100.00
2022-08-22T06:40:03.610Z,100.00
2022-08-22T06:41:07.884Z,100.00
2022-08-22T06:42:16.475Z,100.00
2022-08-22T06:43:20.837Z,100.00
2022-08-22T06:44:30.194Z,100.00
2022-08-22T06:45:33.044Z,100.00
2022-08-22T06:46:37.974Z,100.00
2022-08-22T06:47:50.989Z,100.00
2022-08-22T06:48:56.596Z,100.00
2022-08-22T06:50:13.922Z,100.00
2022-08-22T06:51:18.942Z,100.00
2022-08-22T06:52:23.681Z,100.00
2022-08-22T06:53:39.582Z,100.00
2022-08-22T06:54:51.574Z,100.00
2022-08-22T06:55:57.250Z,100.00
2022-08-22T06:57:00.950Z,100.00
2022-08-22T06:58:06.197Z,100.00
2022-08-22T06:59:14.756Z,100.00
2022-08-22T07:00:17.971Z,100.00
2022-08-22T07:01:25.373Z,100.00
2022-08-22T07:02:35.951Z,100.00
2022-08-22T07:03:41.148Z,100.00
2022-08-22T07:04:44.018Z,100.00
2022-08-22T07:05:46.937Z,100.00
2022-08-22T07:06:50.796Z,100.00
2022-08-22T07:07:54.411Z,100.00
2022-08-22T07:08:57.489Z,100.00
2022-08-22T07:10:00.383Z,100.00
2022-08-22T07:11:28.005Z,100.00
2022-08-22T07:12:35.351Z,100.00
2022-08-22T07:13:39.270Z,100.00
2022-08-22T07:14:44.499Z,100.00
2022-08-22T07:15:53.655Z,100.00
2022-08-22T07:17:01.441Z,100.00
2022-08-22T07:18:06.775Z,100.00
2022-08-22T07:19:13.231Z,100.00
2022-08-22T07:20:24.318Z,100.00
2022-08-22T07:21:32.568Z,100.00
2022-08-22T07:22:39.296Z,100.00
2022-08-22T07:23:47.942Z,100.00
2022-08-22T07:24:52.623Z,100.00
2022-08-22T07:26:05.205Z,100.00
2022-08-22T07:27:16.975Z,100.00
2022-08-22T07:28:51.373Z,100.00
2022-08-22T07:30:10.003Z,100.00
2022-08-22T07:31:31.793Z,100.00
2022-08-22T07:32:41.990Z,100.00
2022-08-22T07:33:47.856Z,99.97
2022-08-22T07:35:03.131Z,99.96
2022-08-22T07:36:23.204Z,99.89
2022-08-22T07:37:40.722Z,100.00
2022-08-22T07:38:47.893Z,100.00
2022-08-22T07:39:54.196Z,100.00
2022-08-22T07:41:05.299Z,100.00
2022-08-22T07:42:18.906Z,100.00
2022-08-22T07:43:34.407Z,100.00
2022-08-22T07:44:45.550Z,100.00
2022-08-22T07:45:57.653Z,99.86
2022-08-22T07:47:03.612Z,99.75
2022-08-22T07:48:09.488Z,100.00
2022-08-22T07:49:29.573Z,99.91
2022-08-22T07:50:35.930Z,99.98
2022-08-22T07:51:41.515Z,99.62
2022-08-22T07:52:45.599Z,99.70
2022-08-22T07:54:06.077Z,99.54
2022-08-22T07:55:19.659Z,99.89
2022-08-22T07:56:43.161Z,99.93
2022-08-22T07:58:01.668Z,99.61
2022-08-22T07:59:13.205Z,99.33
2022-08-22T08:00:18.925Z,98.88
2022-08-22T08:01:23.151Z,99.25
2022-08-22T08:02:26.537Z,99.16
2022-08-22T08:03:30.807Z,99.36
2022-08-22T08:04:40.052Z,99.03
2022-08-22T08:05:44.985Z,98.71
2022-08-22T08:06:52.983Z,98.81
2022-08-22T08:07:56.271Z,98.73
2022-08-22T08:08:59.189Z,98.63
2022-08-22T08:10:04.952Z,98.52
2022-08-22T08:11:09.911Z,97.52
2022-08-22T08:12:15.268Z,98.29
2022-08-22T08:13:25.266Z,98.13
2022-08-22T08:14:28.715Z,96.88
2022-08-22T08:15:33.808Z,97.21
2022-08-22T08:16:47.625Z,97.27
2022-08-22T08:17:54.694Z,97.81
2022-08-22T08:18:59.527Z,97.15
2022-08-22T08:20:05.312Z,97.00
2022-08-22T08:21:09.274Z,96.41
2022-08-22T08:22:15.820Z,94.37
2022-08-22T08:23:23.370Z,96.50
2022-08-22T08:24:32.229Z,96.62
2022-08-22T08:25:53.397Z,95.56
2022-08-22T08:27:31.435Z,96.04
2022-08-22T08:28:39.383Z,95.53
2022-08-22T08:29:48.256Z,95.63
2022-08-22T08:30:56.001Z,95.31
2022-08-22T08:32:00.210Z,95.71
2022-08-22T08:33:25.449Z,95.68
2022-08-22T08:34:32.442Z,95.07
2022-08-22T08:35:42.294Z,95.28
2022-08-22T08:37:10.039Z,94.71
2022-08-22T08:38:19.300Z,95.33
2022-08-22T08:39:22.015Z,95.27
2022-08-22T08:40:27.474Z,95.20
2022-08-22T08:41:33.034Z,95.22
2022-08-22T08:42:58.700Z,95.46
2022-08-22T08:44:10.354Z,95.74
2022-08-22T08:45:28.991Z,95.98
2022-08-22T08:46:31.826Z,96.25
2022-08-22T08:47:37.331Z,96.45
2022-08-22T08:49:01.165Z,96.49
2022-08-22T08:50:29.130Z,96.24
2022-08-22T08:51:40.764Z,95.76
2022-08-22T08:52:52.796Z,96.16
2022-08-22T08:53:56.301Z,95.83
2022-08-22T08:55:21.729Z,96.09
2022-08-22T08:56:38.054Z,96.20
2022-08-22T08:57:53.794Z,95.42
2022-08-22T08:59:10.364Z,94.55
2022-08-22T09:00:16.130Z,94.90
2022-08-22T09:01:21.521Z,94.35
2022-08-22T09:02:33.039Z,94.12
2022-08-22T09:03:56.587Z,94.23
2022-08-22T09:05:12.080Z,94.44
2022-08-22T09:06:18.530Z,94.38
2022-08-22T09:07:24.274Z,94.88
2022-08-22T09:08:27.585Z,94.97
2022-08-22T09:09:52.370Z,94.53
2022-08-22T09:11:09.669Z,93.32
2022-08-22T09:12:33.627Z,92.82
2022-08-22T09:13:41.661Z,92.50
2022-08-22T09:15:02.794Z,91.08
2022-08-22T09:16:24.596Z,92.12
2022-08-22T09:17:46.482Z,91.38
2022-08-22T09:18:57.821Z,92.85
2022-08-22T09:20:03.256Z,93.21
2022-08-22T09:21:44.316Z,92.53
2022-08-22T09:22:50.880Z,92.78
2022-08-22T09:23:56.505Z,91.74
2022-08-22T09:24:59.561Z,91.35
2022-08-22T09:26:14.389Z,91.10
2022-08-22T09:27:32.543Z,91.36
2022-08-22T09:28:38.915Z,89.19
2022-08-22T09:29:54.466Z,89.70
2022-08-22T09:31:48.403Z,89.59
2022-08-22T09:33:04.939Z,89.93
2022-08-22T09:34:17.149Z,90.76
2022-08-22T09:35:44.006Z,89.91
2022-08-22T09:37:02.037Z,89.33
2022-08-22T09:38:24.290Z,88.63
2022-08-22T09:39:45.905Z,88.64
2022-08-22T09:41:11.056Z,89.01
2022-08-22T09:42:19.901Z,88.90
2022-08-22T09:43:33.747Z,89.08
2022-08-22T09:44:59.400Z,88.75
2022-08-22T09:46:02.316Z,87.41
2022-08-22T09:47:27.252Z,88.31
2022-08-22T09:48:54.311Z,87.66
2022-08-22T09:50:17.956Z,86.99
2022-08-22T09:51:34.599Z,86.91
2022-08-22T09:52:56.203Z,86.69
2022-08-22T09:54:12.445Z,85.63
2022-08-22T09:55:25.218Z,86.57
2022-08-22T09:56:56.920Z,86.86
2022-08-22T09:58:03.549Z,86.73
2022-08-22T09:59:06.786Z,86.55
2022-08-22T10:00:22.477Z,86.65
2022-08-22T10:01:32.913Z,86.31
2022-08-22T10:02:56.411Z,84.27
2022-08-22T10:04:02.385Z,84.99
2022-08-22T10:05:07.903Z,84.37
2022-08-22T10:06:30.824Z,82.50
2022-08-22T10:07:41.015Z,83.15
2022-08-22T10:08:57.887Z,82.65
2022-08-22T10:10:09.955Z,82.59
2022-08-22T10:11:26.867Z,81.89
2022-08-22T10:12:36.228Z,83.00
2022-08-22T10:13:46.956Z,83.23
2022-08-22T10:15:09.238Z,83.85
2022-08-22T10:16:21.455Z,83.39
2022-08-22T10:17:29.884Z,82.85
2022-08-22T10:18:37.565Z,82.29
2022-08-22T10:19:51.621Z,82.56
2022-08-22T10:20:57.233Z,82.15
2022-08-22T10:22:18.959Z,82.72
2022-08-22T10:23:31.096Z,82.91
2022-08-22T10:24:34.128Z,83.31
2022-08-22T10:25:52.949Z,83.30
2022-08-22T10:26:58.804Z,82.92
2022-08-22T10:28:23.481Z,82.58
2022-08-22T10:29:40.432Z,81.64
2022-08-22T10:31:04.903Z,79.75
2022-08-22T10:32:17.356Z,79.97
2022-08-22T10:33:35.783Z,79.37
2022-08-22T10:34:43.318Z,80.69
2022-08-22T10:35:46.306Z,80.54
2022-08-22T10:36:50.691Z,80.29
2022-08-22T10:38:13.159Z,79.95
2022-08-22T10:39:23.281Z,79.54
2022-08-22T10:40:36.069Z,80.59
2022-08-22T10:41:55.941Z,80.82
2022-08-22T10:43:03.335Z,80.84
2022-08-22T10:44:09.156Z,80.38
2022-08-22T10:45:23.874Z,80.86
2022-08-22T10:46:42.057Z,80.55
2022-08-22T10:47:51.274Z,81.09
2022-08-22T10:48:54.381Z,81.15
2022-08-22T10:50:02.281Z,79.86
2022-08-22T10:51:17.171Z,79.95
2022-08-22T10:52:33.077Z,79.86
2022-08-22T10:54:01.984Z,79.50
2022-08-22T10:55:17.524Z,77.90
2022-08-22T10:56:30.335Z,77.17
2022-08-22T10:57:38.986Z,77.40
2022-08-22T10:58:58.103Z,78.41
2022-08-22T11:00:29.218Z,78.16
2022-08-22T11:01:41.749Z,77.85
2022-08-22T11:02:53.064Z,77.78
2022-08-22T11:04:12.747Z,76.90
2022-08-22T11:05:15.501Z,77.74
2022-08-22T11:06:24.106Z,77.78
2022-08-22T11:07:48.420Z,76.60
2022-08-22T11:09:07.161Z,77.12
2022-08-22T11:10:16.607Z,77.50
2022-08-22T11:11:36.016Z,77.63
2022-08-22T11:12:44.646Z,76.57
2022-08-22T11:14:07.027Z,76.40
2022-08-22T11:15:40.226Z,76.60
2022-08-22T11:16:58.739Z,76.06
2022-08-22T11:18:14.768Z,75.77
2022-08-22T11:19:36.132Z,75.32
2022-08-22T11:20:42.609Z,75.93
2022-08-22T11:21:51.006Z,75.56
2022-08-22T11:22:55.657Z,76.07
2022-08-22T11:24:04.864Z,75.98
2022-08-22T11:25:11.624Z,75.68
2022-08-22T11:26:33.907Z,75.68
2022-08-22T11:27:52.987Z,75.27
2022-08-22T11:29:02.855Z,75.74
2022-08-22T11:30:25.928Z,76.69
2022-08-22T11:31:51.484Z,75.27
2022-08-22T11:33:16.776Z,76.06
2022-08-22T11:34:35.743Z,76.54
2022-08-22T11:35:43.973Z,75.84
2022-08-22T11:36:50.281Z,75.63
2022-08-22T11:38:13.604Z,75.52
2022-08-22T11:39:22.311Z,75.66
2022-08-22T11:40:28.140Z,75.66
2022-08-22T11:41:31.542Z,76.25
2022-08-22T11:42:47.726Z,76.35
2022-08-22T11:43:50.540Z,76.00
2022-08-22T11:44:55.739Z,76.63
2022-08-22T11:46:00.808Z,77.21
2022-08-22T11:47:10.911Z,77.50
2022-08-22T11:48:22.018Z,77.27
2022-08-22T11:49:41.151Z,76.95
2022-08-22T11:50:48.463Z,76.14
2022-08-22T11:51:57.363Z,76.78
2022-08-22T11:53:19.492Z,76.97
2022-08-22T11:54:34.631Z,76.77
2022-08-22T11:55:41.221Z,75.37
2022-08-22T11:56:45.095Z,75.83
2022-08-22T11:57:50.326Z,76.26
2022-08-22T11:59:01.306Z,77.21
2022-08-22T12:00:13.702Z,77.51
2022-08-22T12:01:19.215Z,77.42
2022-08-22T12:02:28.740Z,77.33
2022-08-22T12:03:44.107Z,76.85
2022-08-22T12:04:52.449Z,77.14
2022-08-22T12:06:01.329Z,76.77
2022-08-22T12:07:15.762Z,76.11
2022-08-22T12:08:33.575Z,75.94
2022-08-22T12:09:42.774Z,76.16
2022-08-22T12:11:11.662Z,76.78
2022-08-22T12:12:19.122Z,76.36
2022-08-22T12:13:34.799Z,76.01
2022-08-22T12:14:56.302Z,76.16
2022-08-22T12:16:05.219Z,75.63
2022-08-22T12:17:28.553Z,74.61
2022-08-22T12:18:45.084Z,75.36
2022-08-22T12:20:14.376Z,75.84
2022-08-22T12:21:22.474Z,75.94
2022-08-22T12:22:31.677Z,75.94
2022-08-22T12:23:59.757Z,75.84
2022-08-22T12:25:22.614Z,75.12
2022-08-22T12:26:44.052Z,74.77
2022-08-22T12:28:11.198Z,74.78
2022-08-22T12:29:16.909Z,74.41
2022-08-22T12:30:24.653Z,74.68
2022-08-22T12:31:27.466Z,74.19
2022-08-22T12:32:50.727Z,75.15
2022-08-22T12:33:53.461Z,74.69
2022-08-22T12:35:14.345Z,75.14
2022-08-22T12:36:26.205Z,75.51
2022-08-22T12:37:44.867Z,75.70
2022-08-22T12:39:13.959Z,75.15
2022-08-22T12:40:36.508Z,74.50
2022-08-22T12:42:04.077Z,74.73
2022-08-22T12:43:32.235Z,74.64
2022-08-22T12:44:47.116Z,74.91
2022-08-22T12:46:13.128Z,75.01
2022-08-22T12:47:19.060Z,75.22
2022-08-22T12:48:40.040Z,75.36
2022-08-22T12:49:52.565Z,75.50
2022-08-22T12:51:17.492Z,75.43
2022-08-22T12:52:25.107Z,75.79
2022-08-22T12:53:43.158Z,75.86
2022-08-22T12:54:55.581Z,75.76
2022-08-22T12:55:58.361Z,75.76
2022-08-22T12:57:23.845Z,75.83
2022-08-22T12:58:46.777Z,74.38
2022-08-22T12:59:58.116Z,74.18
2022-08-22T13:01:04.552Z,74.02
2022-08-22T13:02:14.785Z,74.25
2022-08-22T13:03:25.652Z,74.40
2022-08-22T13:04:33.268Z,74.54
2022-08-22T13:05:41.032Z,73.77
2022-08-22T13:07:06.738Z,73.17
2022-08-22T13:08:13.862Z,72.51
2022-08-22T13:09:28.779Z,71.64
2022-08-22T13:10:52.366Z,71.32
2022-08-22T13:12:00.327Z,71.75
2022-08-22T13:13:12.105Z,71.50
2022-08-22T13:14:24.042Z,72.17
2022-08-22T13:15:31.671Z,72.19
2022-08-22T13:16:37.069Z,72.09
2022-08-22T13:17:43.578Z,72.52
2022-08-22T13:18:53.833Z,72.09
2022-08-22T13:20:00.127Z,72.16
2022-08-22T13:21:05.578Z,71.46
2022-08-22T13:22:12.388Z,72.10
2022-08-22T13:23:27.190Z,72.42
2022-08-22T13:24:38.714Z,72.23
2022-08-22T13:26:07.940Z,71.56
2022-08-22T13:27:15.791Z,71.53
2022-08-22T13:28:24.107Z,72.30
2022-08-22T13:29:42.916Z,72.06
2022-08-22T13:30:49.453Z,72.36
2022-08-22T13:31:55.231Z,72.30
2022-08-22T13:33:05.372Z,72.29
2022-08-22T13:34:17.955Z,72.06
2022-08-22T13:35:39.902Z,71.33
2022-08-22T13:36:51.833Z,71.25
2022-08-22T13:37:58.545Z,71.91
2022-08-22T13:39:09.644Z,71.91
2022-08-22T13:40:22.259Z,71.68
2022-08-22T13:41:30.851Z,71.50
2022-08-22T13:42:40.085Z,71.03
2022-08-22T13:44:01.954Z,70.73
2022-08-22T13:45:12.041Z,70.25
2022-08-22T13:46:22.518Z,70.27
2022-08-22T13:47:31.834Z,69.83
2022-08-22T13:49:04.223Z,70.14
2022-08-22T13:50:17.049Z,70.72
2022-08-22T13:51:21.279Z,70.33
2022-08-22T13:52:41.547Z,70.00
2022-08-22T13:54:00.516Z,69.35
2022-08-22T13:55:22.474Z,70.00
2022-08-22T13:56:51.093Z,69.89
2022-08-22T13:57:59.595Z,69.35
2022-08-22T13:59:05.828Z,69.85
2022-08-22T14:00:12.427Z,70.31
2022-08-22T14:01:37.853Z,70.93
2022-08-22T14:02:50.105Z,70.14
2022-08-22T14:03:59.448Z,69.64
2022-08-22T14:05:06.336Z,69.95
2022-08-22T14:06:35.470Z,69.70
2022-08-22T14:08:01.149Z,69.65
2022-08-22T14:09:10.884Z,69.79
2022-08-22T14:10:20.581Z,70.05
2022-08-22T14:11:35.358Z,70.00
2022-08-22T14:12:56.237Z,70.08
2022-08-22T14:14:06.164Z,69.59
2022-08-22T14:15:11.584Z,69.78
2022-08-22T14:16:26.680Z,70.01
2022-08-22T14:17:42.469Z,70.26
2022-08-22T14:18:53.808Z,70.45
2022-08-22T14:20:03.528Z,70.45
2022-08-22T14:21:40.473Z,70.56
2022-08-22T14:23:10.265Z,70.74
2022-08-22T14:24:27.267Z,70.47
2022-08-22T14:25:35.409Z,70.09
2022-08-22T14:26:47.497Z,69.71
2022-08-22T14:27:52.449Z,69.47
2022-08-22T14:28:58.472Z,69.87
2022-08-22T14:30:05.769Z,70.06
2022-08-22T14:31:13.476Z,69.99
2022-08-22T14:32:23.365Z,69.75
2022-08-22T14:33:59.073Z,69.85
2022-08-22T14:35:34.766Z,69.86
2022-08-22T14:36:54.617Z,69.71
2022-08-22T14:38:17.446Z,69.44
2022-08-22T14:39:30.106Z,69.46
2022-08-22T14:40:36.285Z,69.13
2022-08-22T14:41:52.758Z,69.18
2022-08-22T14:43:08.717Z,68.80
2022-08-22T14:44:13.695Z,69.10
2022-08-22T14:45:22.028Z,67.77
2022-08-22T14:46:49.382Z,68.25
2022-08-22T14:48:29.425Z,68.47
2022-08-22T14:49:28.637Z,69.01
2022-08-22T14:50:35.814Z,69.12
2022-08-22T14:51:40.446Z,69.21
2022-08-22T14:52:45.343Z,69.28
2022-08-22T14:53:48.375Z,69.23
2022-08-22T14:55:06.256Z,69.17
2022-08-22T14:56:21.712Z,69.03
2022-08-22T14:57:25.243Z,69.20
2022-08-22T14:58:29.773Z,69.25
2022-08-22T14:59:38.356Z,68.99
2022-08-22T15:00:44.938Z,69.27
2022-08-22T15:01:58.611Z,69.52
2022-08-22T15:03:17.553Z,69.52
2022-08-22T15:04:28.226Z,69.47
2022-08-22T15:05:45.204Z,69.65
2022-08-22T15:06:54.259Z,69.60
2022-08-22T15:08:01.435Z,69.73
2022-08-22T15:09:15.321Z,70.12
2022-08-22T15:10:31.718Z,70.09
2022-08-22T15:11:36.485Z,70.32
2022-08-22T15:12:48.371Z,70.68
2022-08-22T15:13:57.107Z,70.68
2022-08-22T15:15:01.546Z,70.67
2022-08-22T15:16:16.113Z,70.63